W88 weather

Air Harbor Airport
Greensboro, North Carolina, United States

Public forecast

Using degrees Fahrenheit for public forecast. Weather courtesy of forecast.io.

Closest aviation weather report (METAR) to Air Harbor Airport

Closest report is Piedmont Triad International Airport, 7.9 nm (14.7 km) SW. Retrieved 2020/04/04 17:54 UTC (14 minutes ago):

KGSO 041754Z VRB06KT 10SM SCT250 21/M01 A2997 RMK AO2 SLP143 T02061006 10206 20094 58020

Closest aviation forecast (TAF) to Air Harbor Airport

Closest forecast is Piedmont Triad International Airport, 7.9 nm (14.7 km) SW. Retrieved 2020/04/04 18:45 UTC (0 seconds ago):

TAF KGSO 041740Z 0418/0518 02007KT P6SM FEW100 SCT250